Oakland, California
Current Conditions -  °F | °C
As of 10:53 AM on Sunday 21 Dec 2014 (Local Time) from KOAK Reporting Station
Broken Clouds Broken Clouds  
Wind Chill: 16°   Ceiling: 900
Heat Index: 16°   Visibility: 8mi
Dew Point: 14°   Wind: 0mph
Humidity: 93%   Direction: NA
Pressure: 30.31"   Gusts: NA
Location:  37.81°N, 122.27°W
Report Text: KOAK 211853Z 00000KT 8SM SCT005 BKN009 BKN180 16/14 A3031 RMK AO2 SLP262 T01560144
Loading
Personal Weather Stations






























Interactive Weather Map New forecast layout! Learn more

10-Day Weather Forecast

Advertisements
Track Severe Weather on mobile